createdAt,value
2023-03-26T00:00:13.451Z,982.64
2023-03-26T00:01:13.524Z,1000.00
2023-03-26T00:02:13.582Z,1000.00
2023-03-26T00:03:13.626Z,1000.00
2023-03-26T00:04:13.664Z,1000.00
2023-03-26T00:05:13.752Z,720.44
2023-03-26T00:06:13.779Z,473.40
2023-03-26T00:07:13.846Z,415.78
2023-03-26T00:08:13.937Z,327.61
2023-03-26T00:09:13.988Z,309.30
2023-03-26T00:10:14.047Z,263.91
2023-03-26T00:11:14.130Z,239.76
2023-03-26T00:12:14.146Z,213.35
2023-03-26T00:13:14.247Z,215.64
2023-03-26T00:14:14.329Z,233.76
2023-03-26T00:15:14.348Z,237.04
2023-03-26T00:16:14.462Z,262.37
2023-03-26T00:17:14.528Z,316.32
2023-03-26T00:18:14.538Z,308.92
2023-03-26T00:19:14.616Z,306.96
2023-03-26T00:20:14.680Z,330.33
2023-03-26T00:21:14.736Z,340.78
2023-03-26T00:22:14.813Z,386.59
2023-03-26T00:23:14.959Z,386.57
2023-03-26T00:24:15.112Z,429.63
2023-03-26T00:25:14.974Z,426.70
2023-03-26T00:26:15.058Z,399.98
2023-03-26T00:27:15.072Z,387.16
2023-03-26T00:28:15.120Z,402.39
2023-03-26T00:29:15.197Z,442.45
2023-03-26T00:30:15.227Z,467.04
2023-03-26T00:31:15.300Z,483.62
2023-03-26T00:32:15.323Z,437.53
2023-03-26T00:33:15.388Z,481.82
2023-03-26T00:34:15.545Z,457.75
2023-03-26T00:35:15.525Z,470.56
2023-03-26T00:36:15.685Z,456.55
2023-03-26T00:37:15.640Z,540.95
2023-03-26T00:38:15.649Z,541.60
2023-03-26T00:39:15.751Z,488.86
2023-03-26T00:40:15.751Z,474.52
2023-03-26T00:41:15.819Z,472.38
2023-03-26T00:42:15.866Z,493.35
2023-03-26T00:43:15.925Z,507.38
2023-03-26T00:44:15.989Z,523.33
2023-03-26T00:45:16.027Z,547.42
2023-03-26T00:46:16.143Z,578.47
2023-03-26T00:47:16.156Z,618.65
2023-03-26T00:48:16.196Z,605.35
2023-03-26T00:49:16.299Z,631.24
2023-03-26T00:50:16.344Z,656.09
2023-03-26T00:51:16.350Z,649.22
2023-03-26T00:52:16.414Z,665.48
2023-03-26T00:53:16.496Z,692.89
2023-03-26T00:54:16.509Z,689.40
2023-03-26T00:55:16.562Z,714.91
2023-03-26T00:56:16.636Z,728.48
2023-03-26T00:57:28.869Z,773.45
2023-03-26T00:58:17.729Z,774.45
2023-03-26T00:59:16.767Z,773.76
2023-03-26T01:00:16.945Z,680.97
2023-03-26T01:01:16.816Z,627.98
2023-03-26T01:02:16.846Z,660.05
2023-03-26T01:03:26.591Z,685.85
2023-03-26T01:04:18.014Z,687.15
2023-03-26T01:06:16.927Z,712.69
2023-03-26T01:07:16.924Z,738.44
2023-03-26T01:08:16.942Z,815.40
2023-03-26T01:09:17.004Z,793.58
2023-03-26T01:10:17.004Z,801.46
2023-03-26T01:11:17.045Z,772.22
2023-03-26T01:12:17.129Z,738.78
2023-03-26T01:13:17.091Z,760.73
2023-03-26T01:14:17.144Z,719.69
2023-03-26T01:15:17.154Z,712.80
2023-03-26T01:16:17.231Z,746.87
2023-03-26T01:17:17.228Z,749.52
2023-03-26T01:18:17.236Z,780.12
2023-03-26T01:19:17.293Z,772.70
2023-03-26T01:20:17.297Z,759.69
2023-03-26T01:21:17.338Z,753.65
2023-03-26T01:22:17.374Z,774.92
2023-03-26T01:23:17.403Z,769.62
2023-03-26T01:24:17.448Z,816.16
2023-03-26T01:44:18.281Z,640.63
2023-03-26T01:45:18.352Z,634.60
2023-03-26T01:46:18.470Z,599.08
2023-03-26T01:47:18.456Z,629.55
2023-03-26T01:48:18.511Z,649.66
2023-03-26T01:49:18.547Z,658.78
2023-03-26T01:50:18.589Z,660.98
2023-03-26T01:51:18.636Z,677.49
2023-03-26T01:52:18.711Z,666.18
2023-03-26T01:53:18.765Z,644.49
2023-03-26T01:54:18.761Z,642.28
2023-03-26T01:55:18.826Z,626.41
2023-03-26T01:56:18.890Z,553.92
2023-03-26T01:57:18.912Z,460.61
2023-03-26T01:58:19.002Z,450.60
2023-03-26T01:59:19.068Z,467.04
2023-03-26T02:00:19.117Z,478.17
2023-03-26T02:01:19.153Z,484.13
2023-03-26T02:02:19.193Z,494.22
2023-03-26T02:03:19.363Z,515.17
2023-03-26T02:09:19.522Z,665.16
2023-03-26T02:10:19.543Z,659.58
2023-03-26T02:11:20.085Z,661.96
2023-03-26T02:12:19.590Z,610.52
2023-03-26T02:13:19.666Z,629.99
2023-03-26T02:14:19.688Z,668.30
2023-03-26T02:15:19.764Z,671.39
2023-03-26T02:16:19.852Z,700.15
2023-03-26T02:17:19.855Z,724.65
2023-03-26T02:18:19.917Z,651.13
2023-03-26T02:19:20.368Z,604.54
2023-03-26T02:25:20.249Z,575.95
2023-03-26T02:26:20.274Z,522.19
2023-03-26T02:27:20.330Z,562.39
2023-03-26T02:28:20.402Z,540.35
2023-03-26T02:29:20.653Z,504.47
2023-03-26T02:30:20.457Z,498.39
2023-03-26T02:31:20.608Z,574.91
2023-03-26T02:48:21.316Z,636.66
2023-03-26T02:49:21.361Z,627.10
2023-03-26T02:50:21.376Z,644.08
2023-03-26T02:51:21.393Z,640.17
2023-03-26T02:52:21.471Z,620.81
2023-03-26T02:53:21.539Z,607.91
2023-03-26T02:54:21.591Z,609.50
2023-03-26T02:55:21.599Z,634.51
2023-03-26T02:56:21.702Z,656.80
2023-03-26T02:57:21.689Z,630.23
2023-03-26T02:59:21.815Z,618.41
2023-03-26T03:00:21.887Z,636.86
2023-03-26T03:01:21.985Z,629.19
2023-03-26T03:02:22.016Z,645.62
2023-03-26T03:03:22.156Z,664.51
2023-03-26T03:04:22.106Z,660.23
2023-03-26T03:05:22.298Z,664.31
2023-03-26T03:06:22.102Z,682.93
2023-03-26T03:20:22.764Z,677.93
2023-03-26T03:21:22.776Z,666.91
2023-03-26T03:22:22.842Z,604.74
2023-03-26T03:23:23.142Z,639.05
2023-03-26T03:24:22.940Z,674.62
2023-03-26T03:25:22.944Z,680.30
2023-03-26T03:26:22.997Z,724.99
2023-03-26T03:27:23.061Z,750.38
2023-03-26T03:28:23.122Z,750.23
2023-03-26T03:29:23.191Z,757.73
2023-03-26T03:30:23.196Z,720.66
2023-03-26T03:31:23.256Z,634.25
2023-03-26T03:32:23.329Z,691.36
2023-03-26T03:33:23.340Z,724.16
2023-03-26T03:34:23.360Z,726.54
2023-03-26T03:35:23.460Z,711.06
2023-03-26T03:36:23.484Z,792.47
2023-03-26T03:37:23.545Z,751.45
2023-03-26T03:38:23.586Z,796.55
2023-03-26T03:39:23.659Z,776.28
2023-03-26T03:40:23.733Z,786.40
2023-03-26T03:41:23.744Z,830.56
2023-03-26T03:42:23.782Z,828.71
2023-03-26T03:43:23.817Z,812.26
2023-03-26T03:44:23.896Z,834.71
2023-03-26T03:45:23.950Z,827.88
2023-03-26T03:46:24.028Z,834.62
2023-03-26T03:47:24.050Z,820.63
2023-03-26T03:48:24.184Z,814.27
2023-03-26T04:02:24.713Z,775.35
2023-03-26T04:03:33.412Z,797.10
2023-03-26T04:24:25.258Z,871.70
2023-03-26T04:25:25.314Z,854.73
2023-03-26T04:26:25.342Z,852.12
2023-03-26T04:27:25.347Z,849.45
2023-03-26T04:28:25.427Z,866.76
2023-03-26T04:29:25.434Z,820.42
2023-03-26T04:30:25.475Z,805.99
2023-03-26T04:31:25.559Z,836.66
2023-03-26T04:32:25.642Z,832.22
2023-03-26T04:33:25.629Z,795.51
2023-03-26T04:34:25.683Z,812.51
2023-03-26T04:35:25.744Z,781.73
2023-03-26T04:36:25.791Z,766.52
2023-03-26T04:37:25.837Z,776.07
2023-03-26T04:38:25.890Z,752.21
2023-03-26T04:51:26.450Z,682.74
2023-03-26T04:52:26.516Z,665.46
2023-03-26T04:53:26.548Z,687.93
2023-03-26T04:54:26.610Z,708.41
2023-03-26T04:55:26.681Z,686.16
2023-03-26T04:56:26.743Z,695.60
2023-03-26T04:57:26.787Z,703.61
2023-03-26T04:58:26.856Z,684.48
2023-03-26T04:59:26.858Z,684.82
2023-03-26T05:00:26.908Z,695.08
2023-03-26T05:01:27.021Z,674.19
2023-03-26T05:02:27.024Z,658.80
2023-03-26T05:03:27.031Z,649.79
2023-03-26T05:04:27.153Z,644.22
2023-03-26T05:05:28.405Z,641.88
2023-03-26T05:12:27.470Z,572.38
2023-03-26T05:13:27.521Z,582.48
2023-03-26T05:14:27.538Z,585.03
2023-03-26T05:15:27.601Z,591.48
2023-03-26T05:16:27.654Z,579.64
2023-03-26T05:17:27.732Z,581.80
2023-03-26T05:18:27.764Z,573.22
2023-03-26T05:19:27.808Z,594.52
2023-03-26T05:20:27.834Z,601.30
2023-03-26T05:21:27.918Z,588.40
2023-03-26T05:22:27.989Z,572.93
2023-03-26T05:23:28.041Z,585.04
2023-03-26T05:24:28.085Z,581.86
2023-03-26T05:25:28.116Z,581.44
2023-03-26T05:26:28.192Z,589.07
2023-03-26T05:27:28.240Z,605.56
2023-03-26T05:28:28.309Z,611.15
2023-03-26T05:29:28.411Z,596.79
2023-03-26T05:30:28.438Z,617.16
2023-03-26T05:31:28.516Z,531.72
2023-03-26T05:32:28.589Z,543.62
2023-03-26T05:33:28.767Z,551.77
2023-03-26T05:34:28.688Z,578.45
2023-03-26T05:35:28.719Z,581.90
2023-03-26T05:36:28.768Z,572.70
2023-03-26T05:37:28.818Z,584.97
2023-03-26T05:38:28.896Z,593.30
2023-03-26T05:39:28.958Z,593.30
2023-03-26T05:40:28.962Z,556.23
2023-03-26T05:41:29.038Z,572.40
2023-03-26T05:42:29.075Z,563.65
2023-03-26T05:43:29.158Z,569.62
2023-03-26T05:44:29.233Z,577.74
2023-03-26T05:45:29.271Z,566.22
2023-03-26T05:46:29.367Z,573.48
2023-03-26T05:47:29.407Z,539.58
2023-03-26T05:48:29.449Z,556.40
2023-03-26T05:49:29.548Z,568.24
2023-03-26T05:50:29.608Z,580.73
2023-03-26T05:51:29.629Z,586.95
2023-03-26T05:52:29.727Z,589.65
2023-03-26T05:53:29.788Z,584.58
2023-03-26T05:54:29.845Z,573.30
2023-03-26T05:55:29.898Z,558.08
2023-03-26T05:57:30.850Z,571.59
2023-03-26T06:01:30.268Z,596.87
2023-03-26T06:02:30.368Z,594.97
2023-03-26T06:03:30.540Z,587.95
2023-03-26T06:04:30.568Z,600.33
2023-03-26T06:05:30.560Z,591.74
2023-03-26T06:06:33.099Z,584.53
2023-03-26T06:07:30.574Z,589.27
2023-03-26T06:08:30.653Z,563.62
2023-03-26T06:09:30.672Z,549.68
2023-03-26T06:10:30.663Z,543.75
2023-03-26T06:11:30.707Z,555.01
2023-03-26T06:12:30.790Z,560.39
2023-03-26T06:13:30.790Z,569.11
2023-03-26T06:14:30.824Z,558.91
2023-03-26T06:15:30.882Z,568.93
2023-03-26T06:16:30.948Z,567.20
2023-03-26T06:17:30.956Z,555.07
2023-03-26T06:18:30.945Z,566.66
2023-03-26T06:19:30.919Z,529.82
2023-03-26T06:20:30.937Z,535.50
2023-03-26T06:21:31.030Z,548.18
2023-03-26T06:22:31.042Z,518.86
2023-03-26T06:23:31.104Z,525.09
2023-03-26T06:24:31.103Z,518.02
2023-03-26T06:25:31.169Z,508.14
2023-03-26T06:26:31.125Z,507.57
2023-03-26T06:27:31.180Z,504.36
2023-03-26T06:28:31.224Z,487.58
2023-03-26T06:29:31.237Z,486.80
2023-03-26T06:30:31.291Z,474.73
2023-03-26T06:35:31.500Z,395.86
2023-03-26T06:36:31.480Z,381.81
2023-03-26T06:37:31.494Z,392.34
2023-03-26T06:38:31.541Z,399.20
2023-03-26T06:39:31.572Z,402.16
2023-03-26T06:40:31.570Z,409.86
2023-03-26T06:41:31.622Z,413.91
2023-03-26T06:43:06.515Z,426.11
2023-03-26T06:44:31.679Z,429.55
2023-03-26T06:45:31.725Z,427.76
2023-03-26T06:46:31.806Z,423.85
2023-03-26T06:48:31.833Z,432.62
2023-03-26T06:49:31.851Z,442.18
2023-03-26T06:50:31.910Z,438.83
2023-03-26T06:54:32.019Z,407.17
2023-03-26T06:55:32.027Z,401.30
2023-03-26T06:56:32.036Z,394.82
2023-03-26T06:57:32.079Z,383.87
2023-03-26T06:58:32.118Z,379.80
2023-03-26T06:59:32.151Z,383.89
2023-03-26T07:00:32.222Z,388.93
2023-03-26T07:01:32.308Z,390.74
2023-03-26T07:02:32.330Z,395.21
2023-03-26T07:03:32.353Z,385.09
2023-03-26T07:04:32.452Z,391.36
2023-03-26T07:05:32.493Z,390.57
2023-03-26T07:06:32.532Z,385.39
2023-03-26T07:07:32.552Z,387.06
2023-03-26T07:08:32.663Z,391.41
2023-03-26T07:09:32.703Z,377.99
2023-03-26T07:10:32.765Z,381.87
2023-03-26T07:11:32.778Z,375.39
2023-03-26T07:12:32.824Z,372.88
2023-03-26T07:13:32.918Z,379.57
2023-03-26T07:14:32.935Z,370.85
2023-03-26T07:15:32.985Z,371.85
2023-03-26T07:16:33.114Z,369.86
2023-03-26T07:17:33.112Z,346.85
2023-03-26T07:18:33.218Z,335.08
2023-03-26T07:33:33.989Z,331.91
2023-03-26T07:34:34.058Z,313.71
2023-03-26T07:35:34.131Z,317.06
2023-03-26T07:36:34.163Z,313.34
2023-03-26T07:37:34.258Z,316.05
2023-03-26T07:38:34.271Z,303.83
2023-03-26T07:39:34.316Z,299.98
2023-03-26T07:40:34.376Z,288.19
2023-03-26T07:41:34.434Z,288.39
2023-03-26T07:42:34.483Z,292.02
2023-03-26T07:43:34.581Z,298.18
2023-03-26T07:44:35.819Z,291.72
2023-03-26T07:45:34.632Z,287.96
2023-03-26T07:46:34.676Z,298.38
2023-03-26T07:47:34.838Z,297.02
2023-03-26T07:48:34.832Z,295.66
2023-03-26T07:49:34.841Z,290.36
2023-03-26T07:50:34.890Z,283.53
2023-03-26T07:51:34.988Z,292.72
2023-03-26T07:52:35.075Z,286.29
2023-03-26T07:53:35.066Z,279.52
2023-03-26T07:54:35.111Z,281.03
2023-03-26T07:55:35.166Z,284.51
2023-03-26T07:56:35.330Z,282.85
2023-03-26T07:57:35.276Z,290.70
2023-03-26T07:58:35.325Z,290.75
2023-03-26T07:59:35.376Z,285.30
2023-03-26T08:00:35.444Z,283.56
2023-03-26T08:01:35.468Z,273.32
2023-03-26T08:02:35.567Z,275.70
2023-03-26T08:03:35.719Z,268.27
2023-03-26T08:04:35.713Z,267.98
2023-03-26T08:05:35.693Z,265.54
2023-03-26T08:06:35.765Z,260.59
2023-03-26T08:07:35.776Z,269.45
2023-03-26T08:08:35.870Z,263.67
2023-03-26T08:09:35.853Z,268.58
2023-03-26T08:10:35.902Z,274.13
2023-03-26T08:11:36.018Z,267.08
2023-03-26T08:12:36.064Z,256.11
2023-03-26T08:13:36.059Z,253.94
2023-03-26T08:14:36.150Z,264.62
2023-03-26T08:15:36.206Z,253.64
2023-03-26T08:16:36.192Z,242.83
2023-03-26T08:17:36.332Z,244.21
2023-03-26T08:18:36.367Z,244.31
2023-03-26T08:19:36.371Z,230.84
2023-03-26T08:20:36.404Z,224.90
2023-03-26T08:21:36.453Z,223.36
2023-03-26T08:22:36.498Z,220.80
2023-03-26T08:23:36.545Z,198.42
2023-03-26T08:24:37.588Z,198.62
2023-03-26T08:32:36.831Z,203.75
2023-03-26T08:33:38.414Z,207.00
2023-03-26T08:34:36.875Z,204.13
2023-03-26T08:35:36.966Z,198.97
2023-03-26T08:36:36.922Z,192.33
2023-03-26T08:37:36.933Z,195.49
2023-03-26T08:38:37.007Z,192.12
2023-03-26T08:46:37.337Z,179.58
2023-03-26T08:47:37.338Z,164.64
2023-03-26T08:48:37.343Z,152.80
2023-03-26T08:49:37.400Z,111.76
2023-03-26T08:50:37.448Z,91.75
2023-03-26T08:51:37.513Z,85.08
2023-03-26T08:52:37.510Z,90.10
2023-03-26T08:53:37.574Z,95.24
2023-03-26T08:54:37.630Z,97.58
2023-03-26T08:56:37.757Z,105.72
2023-03-26T08:57:37.706Z,107.41
2023-03-26T08:58:37.783Z,115.06
2023-03-26T08:59:37.803Z,120.28
2023-03-26T09:00:37.876Z,122.41
2023-03-26T09:01:37.977Z,121.13
2023-03-26T09:04:38.080Z,124.53
2023-03-26T09:05:38.159Z,127.39
2023-03-26T09:06:38.138Z,126.42
2023-03-26T09:07:38.189Z,128.97
2023-03-26T09:08:38.298Z,128.56
2023-03-26T09:09:39.270Z,128.90
2023-03-26T09:12:38.423Z,128.80
2023-03-26T09:15:38.392Z,132.84
2023-03-26T09:16:38.521Z,130.10
2023-03-26T09:17:38.521Z,82.55
2023-03-26T09:18:38.523Z,58.75
2023-03-26T09:19:38.516Z,49.14
2023-03-26T09:20:38.523Z,35.85
2023-03-26T09:21:38.577Z,24.18
2023-03-26T09:22:38.563Z,20.09
2023-03-26T09:23:38.622Z,20.25
2023-03-26T09:24:38.688Z,22.91
2023-03-26T09:25:38.703Z,19.55
2023-03-26T09:26:38.708Z,14.39
2023-03-26T09:27:38.776Z,14.10
2023-03-26T09:28:38.825Z,13.06
2023-03-26T09:29:38.863Z,11.02
2023-03-26T09:30:38.948Z,9.77
2023-03-26T09:31:39.058Z,8.88
2023-03-26T09:32:39.125Z,8.95
2023-03-26T09:33:39.138Z,9.15
2023-03-26T09:34:39.168Z,10.16
2023-03-26T09:35:39.273Z,11.07
2023-03-26T09:36:39.275Z,10.95
2023-03-26T09:37:57.069Z,12.97
2023-03-26T09:38:40.430Z,12.55
2023-03-26T09:39:39.396Z,13.07
2023-03-26T09:40:39.419Z,13.60
2023-03-26T09:41:39.456Z,14.74
2023-03-26T09:42:39.491Z,12.65
2023-03-26T09:43:39.561Z,8.48
2023-03-26T09:44:40.429Z,7.19
2023-03-26T09:49:39.735Z,7.31
2023-03-26T09:50:39.747Z,7.36
2023-03-26T09:51:39.788Z,7.69
2023-03-26T09:52:39.787Z,7.90
2023-03-26T09:53:39.829Z,8.18
2023-03-26T09:54:39.895Z,7.43
2023-03-26T09:55:39.884Z,6.10
2023-03-26T09:56:39.931Z,5.15
2023-03-26T09:57:40.033Z,4.84
2023-03-26T09:58:40.074Z,4.43
2023-03-26T09:59:40.132Z,4.25
2023-03-26T10:00:40.163Z,4.36
2023-03-26T10:01:40.367Z,3.88
2023-03-26T10:02:45.540Z,3.72
2023-03-26T10:03:41.326Z,3.73
2023-03-26T10:05:40.376Z,3.83
2023-03-26T10:06:40.423Z,3.85
2023-03-26T10:07:40.427Z,3.83
2023-03-26T10:08:40.454Z,4.16
2023-03-26T10:09:40.455Z,4.92
2023-03-26T10:10:40.526Z,5.20
2023-03-26T10:11:40.569Z,5.07
2023-03-26T10:12:40.550Z,5.08
2023-03-26T10:13:40.610Z,4.93
2023-03-26T10:14:40.665Z,4.21
2023-03-26T10:20:40.878Z,5.97
2023-03-26T10:21:40.980Z,6.65
2023-03-26T10:22:41.020Z,6.20
2023-03-26T10:23:41.093Z,6.96
2023-03-26T10:24:41.112Z,7.85
2023-03-26T10:25:41.229Z,7.17
2023-03-26T10:26:41.251Z,6.98
2023-03-26T10:27:42.283Z,6.74
2023-03-26T10:29:41.381Z,6.37
2023-03-26T10:30:41.362Z,4.82
2023-03-26T10:31:41.395Z,4.79
2023-03-26T10:32:41.474Z,4.93
2023-03-26T10:33:41.417Z,5.18
2023-03-26T10:34:41.482Z,5.97
2023-03-26T10:35:41.498Z,6.49
2023-03-26T10:36:41.504Z,7.42
2023-03-26T10:37:41.523Z,7.20
2023-03-26T10:38:41.534Z,7.36
2023-03-26T10:39:42.409Z,8.24
2023-03-26T10:40:41.611Z,9.79
2023-03-26T10:41:41.619Z,10.62
2023-03-26T10:42:41.680Z,11.26
2023-03-26T10:43:41.678Z,10.85
2023-03-26T10:44:41.725Z,11.68
2023-03-26T10:45:41.730Z,13.08
2023-03-26T10:46:41.878Z,12.98
2023-03-26T10:48:41.881Z,14.36
2023-03-26T10:49:41.936Z,12.06
2023-03-26T10:50:41.984Z,11.05
2023-03-26T10:51:42.021Z,11.59
2023-03-26T10:52:42.093Z,12.26
2023-03-26T10:53:42.105Z,13.33
2023-03-26T10:54:42.509Z,16.56
2023-03-26T11:00:42.454Z,11.52
2023-03-26T11:01:42.571Z,8.50
2023-03-26T11:02:42.582Z,7.30
2023-03-26T11:03:42.601Z,6.66
2023-03-26T11:04:42.730Z,5.96
2023-03-26T11:06:42.745Z,5.16
2023-03-26T11:07:42.820Z,4.45
2023-03-26T11:08:42.881Z,4.52
2023-03-26T11:09:42.924Z,4.45
2023-03-26T11:10:42.988Z,3.60
2023-03-26T11:11:43.110Z,3.36
2023-03-26T11:12:43.149Z,3.28
2023-03-26T11:13:43.221Z,3.12
2023-03-26T11:14:43.318Z,3.31
2023-03-26T11:15:43.396Z,3.67
2023-03-26T11:16:43.937Z,3.72
2023-03-26T11:18:43.577Z,4.76
2023-03-26T11:19:43.583Z,5.49
2023-03-26T11:20:43.690Z,5.30
2023-03-26T11:21:43.737Z,5.54
2023-03-26T11:22:43.817Z,5.94
2023-03-26T11:23:43.848Z,6.77
2023-03-26T11:24:43.900Z,7.60
2023-03-26T11:25:43.970Z,9.19
2023-03-26T11:26:44.023Z,10.27
2023-03-26T11:27:44.091Z,10.17
2023-03-26T11:29:03.469Z,10.76
2023-03-26T11:29:45.165Z,10.78
2023-03-26T11:33:45.294Z,12.51
2023-03-26T11:34:44.328Z,15.19
2023-03-26T11:35:44.405Z,16.23
2023-03-26T11:36:44.348Z,17.45
2023-03-26T11:37:44.352Z,18.53
2023-03-26T11:38:44.357Z,19.51
2023-03-26T11:39:44.419Z,20.33
2023-03-26T11:40:44.424Z,22.91
2023-03-26T11:41:44.421Z,24.13
2023-03-26T11:42:44.450Z,25.66
2023-03-26T11:43:44.492Z,25.05
2023-03-26T11:44:44.508Z,23.62
2023-03-26T11:45:44.550Z,27.31
2023-03-26T11:46:44.595Z,26.79
2023-03-26T11:47:44.680Z,25.87
2023-03-26T11:48:44.855Z,27.49
2023-03-26T11:52:46.886Z,41.59
2023-03-26T11:53:44.931Z,43.71
2023-03-26T11:54:44.986Z,42.75
2023-03-26T11:55:45.045Z,40.21
2023-03-26T11:57:04.935Z,42.95
2023-03-26T11:57:46.114Z,43.10
2023-03-26T12:01:45.231Z,50.61
2023-03-26T12:02:45.336Z,54.87
2023-03-26T12:03:45.258Z,62.68
2023-03-26T12:04:45.351Z,62.23
2023-03-26T12:05:45.303Z,57.10
2023-03-26T12:06:45.303Z,64.33
2023-03-26T12:07:45.333Z,59.61
2023-03-26T12:08:45.338Z,29.63
2023-03-26T12:09:45.400Z,18.92
2023-03-26T12:10:45.416Z,17.22
2023-03-26T12:11:45.524Z,16.25
2023-03-26T12:19:45.722Z,17.45
2023-03-26T12:20:45.728Z,17.45
2023-03-26T12:21:45.769Z,17.84
2023-03-26T12:22:47.741Z,17.24
2023-03-26T12:24:45.939Z,15.42
2023-03-26T12:25:45.983Z,15.77
2023-03-26T12:26:46.051Z,16.70
2023-03-26T12:27:46.082Z,17.18
2023-03-26T12:28:46.130Z,18.19
2023-03-26T12:29:46.192Z,19.11
2023-03-26T12:30:46.221Z,21.18
2023-03-26T12:31:46.313Z,22.26
2023-03-26T12:32:47.053Z,25.43
2023-03-26T12:33:46.424Z,27.25
2023-03-26T12:34:46.470Z,29.42
2023-03-26T12:35:46.504Z,32.08
2023-03-26T12:36:46.578Z,33.06
2023-03-26T12:37:46.584Z,32.19
2023-03-26T12:39:16.353Z,28.20
2023-03-26T12:40:09.449Z,28.22
2023-03-26T12:40:47.736Z,23.04
2023-03-26T12:44:59.322Z,12.37
2023-03-26T12:45:47.873Z,12.22
2023-03-26T12:47:59.506Z,11.11
2023-03-26T12:47:59.726Z,8.74
2023-03-26T12:48:48.022Z,8.17
2023-03-26T12:50:46.991Z,5.72
2023-03-26T12:51:46.999Z,4.89
2023-03-26T12:52:47.021Z,4.07
2023-03-26T12:53:47.106Z,3.91
2023-03-26T12:54:47.106Z,3.22
2023-03-26T12:55:47.126Z,3.21
2023-03-26T12:56:47.196Z,3.54
2023-03-26T12:57:47.189Z,3.89
2023-03-26T12:58:47.244Z,4.37
2023-03-26T12:59:47.271Z,5.19
2023-03-26T13:00:47.317Z,5.76
2023-03-26T13:01:47.387Z,4.72
2023-03-26T13:02:47.460Z,3.58
2023-03-26T13:03:47.373Z,3.62
2023-03-26T13:05:02.341Z,4.10
2023-03-26T13:05:48.490Z,3.15
2023-03-26T13:08:47.544Z,2.97
2023-03-26T13:09:47.591Z,3.10
2023-03-26T13:10:47.666Z,2.35
2023-03-26T13:11:47.672Z,1.70
2023-03-26T13:12:47.764Z,1.24
2023-03-26T13:13:47.743Z,1.03
2023-03-26T13:14:47.760Z,0.77
2023-03-26T13:15:47.834Z,0.68
2023-03-26T13:16:47.851Z,0.53
2023-03-26T13:17:47.933Z,0.50
2023-03-26T13:18:47.913Z,0.44
2023-03-26T13:19:47.947Z,0.40
2023-03-26T13:20:48.075Z,0.44
2023-03-26T13:21:48.111Z,0.50
2023-03-26T13:22:48.177Z,0.50
2023-03-26T13:23:48.287Z,0.52
2023-03-26T13:24:48.357Z,0.56
2023-03-26T13:25:48.440Z,0.59
2023-03-26T13:26:48.525Z,0.62
2023-03-26T13:27:48.706Z,0.65
2023-03-26T13:28:48.698Z,0.61
2023-03-26T13:29:48.790Z,0.69
2023-03-26T13:30:48.963Z,0.74
2023-03-26T13:31:48.947Z,0.74
2023-03-26T13:32:49.054Z,0.85
2023-03-26T13:33:49.111Z,0.86
2023-03-26T13:34:49.203Z,0.95
2023-03-26T13:35:49.774Z,0.97
2023-03-26T13:36:49.444Z,0.92
2023-03-26T13:37:49.464Z,0.98
2023-03-26T13:38:59.139Z,0.99
2023-03-26T13:39:50.685Z,1.00
2023-03-26T13:41:49.633Z,1.14
2023-03-26T13:42:49.692Z,1.57
2023-03-26T13:43:49.712Z,2.34
2023-03-26T13:44:49.746Z,3.05
2023-03-26T13:45:49.854Z,3.62
2023-03-26T13:46:49.839Z,3.82
2023-03-26T13:47:49.923Z,4.61
2023-03-26T13:48:49.871Z,5.55
2023-03-26T13:49:49.947Z,6.52
2023-03-26T13:50:51.260Z,6.78
2023-03-26T13:51:50.219Z,8.53
2023-03-26T13:56:50.622Z,12.58
2023-03-26T14:00:50.732Z,18.95
2023-03-26T14:01:51.262Z,20.98
2023-03-26T14:02:50.800Z,23.73
2023-03-26T14:03:50.881Z,24.21
2023-03-26T14:04:50.994Z,22.37
2023-03-26T14:05:50.986Z,29.71
2023-03-26T14:06:51.043Z,30.43
2023-03-26T14:07:51.119Z,30.59
2023-03-26T14:08:51.205Z,35.02
2023-03-26T14:09:51.287Z,39.44
2023-03-26T14:10:51.289Z,37.66
2023-03-26T14:11:51.300Z,31.56
2023-03-26T14:12:51.384Z,30.79
2023-03-26T14:13:51.602Z,35.93
2023-03-26T14:14:51.542Z,40.15
2023-03-26T14:16:51.649Z,45.43
2023-03-26T14:17:51.946Z,39.65
2023-03-26T14:18:51.717Z,45.05
2023-03-26T14:19:51.771Z,38.97
2023-03-26T14:20:51.806Z,36.71
2023-03-26T14:21:51.876Z,39.74
2023-03-26T14:22:51.923Z,39.15
2023-03-26T14:23:52.000Z,41.43
2023-03-26T14:24:52.047Z,37.84
2023-03-26T14:25:52.130Z,35.41
2023-03-26T14:26:52.157Z,26.86
2023-03-26T14:27:52.243Z,28.04
2023-03-26T14:28:52.302Z,27.74
2023-03-26T14:29:56.814Z,30.61
2023-03-26T14:30:53.601Z,30.67
2023-03-26T14:31:52.411Z,31.06
2023-03-26T14:32:52.482Z,31.95
2023-03-26T14:33:52.431Z,33.02
2023-03-26T14:34:52.441Z,36.17
2023-03-26T14:35:52.560Z,39.14
2023-03-26T14:36:52.494Z,40.47
2023-03-26T14:37:52.540Z,41.39
2023-03-26T14:38:52.586Z,39.59
2023-03-26T14:39:52.589Z,38.70
2023-03-26T14:40:52.662Z,40.65
2023-03-26T14:41:52.664Z,41.51
2023-03-26T14:42:55.218Z,36.57
2023-03-26T14:43:52.772Z,37.71
2023-03-26T14:44:52.771Z,39.83
2023-03-26T14:45:52.822Z,37.45
2023-03-26T14:46:52.930Z,40.13
2023-03-26T14:47:53.142Z,45.27
2023-03-26T14:48:52.897Z,52.16
2023-03-26T14:49:52.908Z,53.84
2023-03-26T14:50:53.037Z,57.87
2023-03-26T14:51:52.977Z,60.37
2023-03-26T14:52:53.028Z,63.48
2023-03-26T14:53:54.028Z,62.48
2023-03-26T14:54:53.082Z,62.12
2023-03-26T14:55:53.105Z,63.60
2023-03-26T14:56:53.153Z,64.38
2023-03-26T14:57:53.134Z,65.06
2023-03-26T14:58:53.166Z,67.48
2023-03-26T14:59:53.199Z,72.19
2023-03-26T15:00:53.281Z,78.75
2023-03-26T15:01:54.259Z,78.81
2023-03-26T15:06:53.351Z,89.09
2023-03-26T15:07:53.360Z,95.52
2023-03-26T15:08:53.446Z,96.27
2023-03-26T15:10:53.600Z,80.42
2023-03-26T15:11:53.452Z,81.74
2023-03-26T15:12:54.492Z,81.81
2023-03-26T15:14:54.095Z,80.35
2023-03-26T15:15:55.006Z,84.66
2023-03-26T15:16:53.665Z,96.38
2023-03-26T15:17:53.640Z,100.61
2023-03-26T15:18:53.627Z,109.82
2023-03-26T15:19:53.743Z,116.49
2023-03-26T15:25:53.792Z,110.40
2023-03-26T15:26:53.865Z,112.21
2023-03-26T15:27:53.861Z,112.36
2023-03-26T15:28:53.893Z,107.06
2023-03-26T15:29:53.918Z,108.09
2023-03-26T15:30:54.138Z,112.98
2023-03-26T15:31:54.014Z,111.31
2023-03-26T15:36:54.097Z,106.50
2023-03-26T15:37:54.107Z,110.03
2023-03-26T15:38:54.138Z,114.85
2023-03-26T15:39:59.861Z,115.54
2023-03-26T15:40:55.357Z,115.57
2023-03-26T15:41:54.220Z,115.59
2023-03-26T15:42:54.279Z,115.55
2023-03-26T15:44:23.800Z,116.43
2023-03-26T15:44:55.350Z,115.63
2023-03-26T15:47:54.428Z,111.84
2023-03-26T15:48:54.437Z,117.65
2023-03-26T15:49:54.482Z,126.91
2023-03-26T15:50:54.740Z,123.62
2023-03-26T15:51:54.524Z,108.94
2023-03-26T15:52:54.582Z,121.11
2023-03-26T15:53:54.617Z,117.05
2023-03-26T15:54:54.602Z,119.18
2023-03-26T15:55:54.669Z,111.55
2023-03-26T15:56:54.735Z,110.18
2023-03-26T15:57:54.754Z,114.23
2023-03-26T15:58:54.754Z,113.37
2023-03-26T15:59:54.791Z,114.16
2023-03-26T16:00:55.059Z,115.31
2023-03-26T16:01:54.905Z,113.80
2023-03-26T16:02:54.981Z,111.25
2023-03-26T16:03:54.939Z,116.23
2023-03-26T16:04:54.985Z,112.58
2023-03-26T16:05:54.961Z,119.05
2023-03-26T16:06:55.048Z,119.97
2023-03-26T16:10:55.420Z,87.31
2023-03-26T16:11:55.284Z,85.92
2023-03-26T16:12:55.389Z,85.62
2023-03-26T16:13:55.399Z,91.74
2023-03-26T16:14:55.457Z,95.72
2023-03-26T16:15:55.519Z,99.00
2023-03-26T16:16:55.577Z,106.35
2023-03-26T16:17:55.609Z,110.77
2023-03-26T16:18:55.679Z,118.58
2023-03-26T16:19:55.723Z,119.20
2023-03-26T16:20:55.950Z,125.72
2023-03-26T16:21:55.829Z,131.82
2023-03-26T16:22:55.867Z,130.43
2023-03-26T16:23:55.965Z,134.11
2023-03-26T16:24:56.031Z,130.77
2023-03-26T16:27:56.213Z,132.89
2023-03-26T16:28:56.216Z,139.64
2023-03-26T16:29:56.278Z,146.81
2023-03-26T16:30:56.608Z,150.51
2023-03-26T16:31:56.444Z,144.09
2023-03-26T16:32:56.519Z,135.39
2023-03-26T16:33:56.486Z,134.83
2023-03-26T16:34:56.556Z,117.83